Time;durP1;ratioP1;P1;durP2;ratioP2;P2;SDS_P1;SDS_P2;PMS_P1;PMS_P2;Temp;Humidity;BMP_temperature;BMP_pressure;BME280_temperature;BME280_humidity;BME280_pressure;Samples;Min_cycle;Max_cycle;Signal;HPM_P1;HPM_P2
2023/07/19 00:01:14;;;;;;;2.50;1.85;;;13.40;96.10;;;;;;5031054;28;20053;-68
2023/07/19 00:03:39;;;;;;;2.13;1.70;;;13.40;97.70;;;;;;5046395;28;20037;-68
2023/07/19 00:06:05;;;;;;;3.70;1.75;;;13.40;97.60;;;;;;5040843;28;20087;-69
2023/07/19 00:08:31;;;;;;;3.97;1.80;;;13.30;97.60;;;;;;5028471;28;20056;-68
2023/07/19 00:10:56;;;;;;;3.78;1.75;;;13.30;98.30;;;;;;5030834;28;20103;-69
2023/07/19 00:13:23;;;;;;;5.43;1.70;;;13.30;97.70;;;;;;5049880;28;20068;-68
2023/07/19 00:15:49;;;;;;;3.55;1.70;;;13.20;97.60;;;;;;5029297;28;20036;-69
2023/07/19 00:18:14;;;;;;;3.20;1.60;;;13.20;98.30;;;;;;5049829;28;20409;-69
2023/07/19 00:20:40;;;;;;;4.55;1.65;;;13.20;99.00;;;;;;5029132;28;20033;-69
2023/07/19 00:23:05;;;;;;;3.83;2.10;;;13.20;99.40;;;;;;5049864;28;20025;-69
2023/07/19 00:25:31;;;;;;;6.25;1.80;;;13.10;98.60;;;;;;5027910;28;20040;-69
2023/07/19 00:27:56;;;;;;;2.17;1.77;;;13.10;98.10;;;;;;5049427;28;20129;-69
2023/07/19 00:30:22;;;;;;;5.35;2.00;;;13.10;98.60;;;;;;5038030;28;20497;-70
2023/07/19 00:32:47;;;;;;;2.67;1.80;;;13.10;98.30;;;;;;5030970;28;20028;-69
2023/07/19 00:35:13;;;;;;;5.68;2.17;;;13.10;98.90;;;;;;5033183;28;20037;-68
2023/07/19 00:37:38;;;;;;;6.38;2.30;;;13.00;98.30;;;;;;5049147;28;20029;-69
2023/07/19 00:40:05;;;;;;;3.60;2.00;;;13.00;98.40;;;;;;5028728;28;20033;-69
2023/07/19 00:42:31;;;;;;;3.10;1.90;;;13.00;98.30;;;;;;5049643;28;20043;-68
2023/07/19 00:44:56;;;;;;;4.65;2.35;;;13.00;98.70;;;;;;5028764;28;20033;-68
2023/07/19 00:47:22;;;;;;;3.15;2.05;;;13.00;99.00;;;;;;5049180;28;20057;-69
2023/07/19 00:49:48;;;;;;;2.08;1.88;;;13.00;99.30;;;;;;5039569;28;20048;-69
2023/07/19 00:52:14;;;;;;;3.15;2.35;;;12.90;99.80;;;;;;5049771;28;20512;-68
2023/07/19 00:54:40;;;;;;;3.03;2.22;;;12.90;99.90;;;;;;5028170;28;20029;-68
2023/07/19 00:57:06;;;;;;;2.72;2.03;;;12.90;99.90;;;;;;5047826;28;20495;-69
2023/07/19 00:59:33;;;;;;;3.17;1.58;;;12.90;99.90;;;;;;5028261;28;20041;-69
2023/07/19 01:01:59;;;;;;;3.67;1.75;;;12.90;99.90;;;;;;5048965;28;20033;-69
2023/07/19 01:04:26;;;;;;;4.38;1.92;;;12.90;99.90;;;;;;5028195;28;20038;-69
2023/07/19 01:06:52;;;;;;;5.20;2.42;;;12.80;99.90;;;;;;5044788;28;20050;-69
2023/07/19 01:09:17;;;;;;;3.83;1.98;;;12.80;99.90;;;;;;5028180;28;20026;-69
2023/07/19 01:11:43;;;;;;;3.65;2.28;;;12.70;99.90;;;;;;5029706;28;20025;-69
2023/07/19 01:14:08;;;;;;;4.38;1.85;;;12.70;99.90;;;;;;5041320;28;20068;-69
2023/07/19 01:16:34;;;;;;;3.25;1.98;;;12.60;99.90;;;;;;5029743;28;20105;-69
2023/07/19 01:19:00;;;;;;;3.00;1.92;;;12.70;99.90;;;;;;5042077;28;20408;-69
2023/07/19 01:21:25;;;;;;;5.88;3.03;;;12.70;99.90;;;;;;5029516;28;20455;-69
2023/07/19 01:23:51;;;;;;;3.88;1.77;;;12.70;99.90;;;;;;5043426;28;20029;-69
2023/07/19 01:26:17;;;;;;;4.57;2.03;;;12.60;99.90;;;;;;5029216;28;20101;-69
2023/07/19 01:28:43;;;;;;;2.33;1.83;;;12.60;99.90;;;;;;5044559;28;20029;-69
2023/07/19 01:31:15;;;;;;;2.08;1.80;;;12.60;99.90;;;;;;5029214;28;20454;-69
2023/07/19 01:33:40;;;;;;;6.20;1.90;;;12.60;99.90;;;;;;5027180;28;20104;-69
2023/07/19 01:36:07;;;;;;;1.92;1.50;;;12.50;99.90;;;;;;5029509;28;20108;-69
2023/07/19 01:38:33;;;;;;;3.85;1.98;;;12.50;99.90;;;;;;5045816;28;20102;-69
2023/07/19 01:40:58;;;;;;;3.80;1.90;;;12.50;99.90;;;;;;5028928;28;20033;-69
2023/07/19 01:43:24;;;;;;;3.03;2.33;;;12.50;99.90;;;;;;5048417;28;20032;-69
2023/07/19 01:45:49;;;;;;;2.42;1.90;;;12.40;99.90;;;;;;5027870;28;20030;-69
2023/07/19 01:48:16;;;;;;;2.90;2.38;;;12.40;99.90;;;;;;5048100;28;20024;-69
2023/07/19 01:50:46;;;;;;;3.08;1.90;;;12.40;99.90;;;;;;5045818;28;20033;-71
2023/07/19 01:53:11;;;;;;;3.03;2.00;;;12.30;99.90;;;;;;5048825;28;20527;-69
2023/07/19 01:55:37;;;;;;;5.15;2.03;;;12.30;99.90;;;;;;5027280;28;20026;-69
2023/07/19 01:58:02;;;;;;;3.78;2.13;;;12.30;99.90;;;;;;5048010;28;20396;-69
2023/07/19 02:00:28;;;;;;;3.88;2.08;;;12.30;99.90;;;;;;5027379;28;20030;-70
2023/07/19 02:02:53;;;;;;;4.40;2.05;;;12.30;99.90;;;;;;5047903;28;20444;-70
2023/07/19 02:05:19;;;;;;;2.13;1.73;;;12.30;99.90;;;;;;5029802;28;20052;-69
2023/07/19 02:07:44;;;;;;;3.13;1.98;;;12.30;99.90;;;;;;5048712;28;20108;-70
2023/07/19 02:10:10;;;;;;;3.35;2.20;;;12.30;99.90;;;;;;5041447;28;20576;-68
2023/07/19 02:12:36;;;;;;;5.22;2.10;;;12.30;99.90;;;;;;5048409;28;20028;-69
2023/07/19 02:15:01;;;;;;;3.05;2.17;;;12.30;99.90;;;;;;5027302;28;20053;-67
2023/07/19 02:17:27;;;;;;;3.75;2.30;;;12.30;99.90;;;;;;5046586;28;20030;-67
2023/07/19 02:19:52;;;;;;;3.25;1.88;;;12.30;99.90;;;;;;5027439;28;20040;-68
2023/07/19 02:22:18;;;;;;;3.65;2.20;;;12.30;99.90;;;;;;5047428;28;20051;-67
2023/07/19 02:24:43;;;;;;;4.82;2.17;;;12.30;99.90;;;;;;5037468;28;20029;-67
2023/07/19 02:27:09;;;;;;;3.92;2.00;;;12.30;99.90;;;;;;5029392;28;20037;-66
2023/07/19 02:29:34;;;;;;;4.32;2.20;;;12.30;99.90;;;;;;5045735;28;20086;-66
2023/07/19 02:32:00;;;;;;;4.50;2.20;;;12.40;99.90;;;;;;5030985;28;20073;-67
2023/07/19 02:34:26;;;;;;;5.13;2.08;;;12.40;99.90;;;;;;5049623;28;20492;-68
2023/07/19 02:36:51;;;;;;;2.85;2.00;;;12.40;99.90;;;;;;5033177;28;20112;-67
2023/07/19 02:39:19;;;;;;;4.63;2.20;;;12.50;99.90;;;;;;5049205;28;20045;-67
2023/07/19 02:41:45;;;;;;;3.65;2.35;;;12.50;99.90;;;;;;5052399;28;20525;-67
2023/07/19 02:44:10;;;;;;;3.58;2.47;;;12.50;99.90;;;;;;5035291;28;20036;-66
2023/07/19 02:46:36;;;;;;;4.30;2.40;;;12.50;99.90;;;;;;5052113;28;20044;-67
2023/07/19 02:49:01;;;;;;;4.32;1.80;;;12.60;99.90;;;;;;5035227;28;20494;-67
2023/07/19 02:51:27;;;;;;;5.35;2.08;;;12.60;99.90;;;;;;5052316;28;20025;-68
2023/07/19 02:53:52;;;;;;;2.92;1.85;;;12.60;99.90;;;;;;5030550;28;20030;-67
2023/07/19 02:56:18;;;;;;;4.85;2.45;;;12.70;99.90;;;;;;5032006;28;20028;-67
2023/07/19 02:58:43;;;;;;;4.63;2.47;;;12.70;99.90;;;;;;5047212;28;20489;-67
2023/07/19 03:01:09;;;;;;;2.75;2.30;;;12.70;99.90;;;;;;5032210;28;20088;-67
2023/07/19 03:03:34;;;;;;;4.07;1.92;;;12.70;99.90;;;;;;5047104;28;20029;-67
2023/07/19 03:06:02;;;;;;;3.17;2.00;;;12.80;99.90;;;;;;5041010;28;20090;-67
2023/07/19 03:08:28;;;;;;;3.22;2.65;;;12.80;99.90;;;;;;5032142;28;20025;-67
2023/07/19 03:10:53;;;;;;;4.78;2.55;;;12.80;99.90;;;;;;5012325;28;20026;-68
2023/07/19 03:13:19;;;;;;;2.58;2.10;;;12.80;99.90;;;;;;5050277;28;20021;-62
2023/07/19 03:15:46;;;;;;;2.78;1.98;;;12.90;99.90;;;;;;5030519;28;20429;-65
2023/07/19 03:18:12;;;;;;;3.33;2.40;;;12.90;99.90;;;;;;5051016;28;20064;-65
2023/07/19 03:20:37;;;;;;;3.03;2.25;;;13.00;99.90;;;;;;5030230;28;20084;-66
2023/07/19 03:23:03;;;;;;;2.85;1.73;;;13.00;99.90;;;;;;5050782;28;20068;-66
2023/07/19 03:25:29;;;;;;;3.30;2.03;;;13.00;99.90;;;;;;5030545;28;20148;-65
2023/07/19 03:27:55;;;;;;;3.53;2.15;;;13.00;99.90;;;;;;5050986;28;20032;-65
2023/07/19 03:30:20;;;;;;;3.22;2.28;;;13.00;99.90;;;;;;5045132;28;20060;-65
2023/07/19 03:32:47;;;;;;;3.00;2.17;;;13.00;99.90;;;;;;5031988;28;20033;-65
2023/07/19 03:35:12;;;;;;;4.20;2.40;;;13.00;99.90;;;;;;5034535;28;20048;-64
2023/07/19 03:37:38;;;;;;;4.50;2.15;;;13.10;99.90;;;;;;5050370;28;20029;-65
2023/07/19 03:40:04;;;;;;;3.17;2.28;;;13.10;99.90;;;;;;5030030;28;20171;-66
2023/07/19 03:42:31;;;;;;;3.35;2.45;;;13.20;99.90;;;;;;5049452;28;20389;-65
2023/07/19 03:44:56;;;;;;;3.80;1.73;;;13.20;99.90;;;;;;5029783;28;20587;-66
2023/07/19 03:47:22;;;;;;;5.13;2.05;;;13.30;99.90;;;;;;5050411;28;20043;-66
2023/07/19 03:49:47;;;;;;;3.83;2.35;;;13.40;99.90;;;;;;5040613;28;20025;-66
2023/07/19 03:52:13;;;;;;;3.20;2.38;;;13.40;99.90;;;;;;5050811;28;20107;-65
2023/07/19 03:54:38;;;;;;;3.17;2.20;;;13.50;99.90;;;;;;5038779;28;20032;-66
2023/07/19 03:57:04;;;;;;;3.00;2.28;;;13.50;99.90;;;;;;5030171;28;20120;-66
2023/07/19 03:59:30;;;;;;;2.70;2.28;;;13.50;99.90;;;;;;5048145;28;20116;-66
2023/07/19 04:01:55;;;;;;;3.00;2.25;;;13.60;99.90;;;;;;5031123;28;20345;-65
2023/07/19 04:04:21;;;;;;;3.58;2.13;;;13.70;99.90;;;;;;5048088;28;20116;-66
2023/07/19 04:06:46;;;;;;;3.45;2.17;;;13.80;99.90;;;;;;5027496;28;20144;-65
2023/07/19 04:09:12;;;;;;;4.07;2.47;;;13.80;99.90;;;;;;5046594;28;20036;-65
2023/07/19 04:11:37;;;;;;;5.20;2.28;;;13.90;99.90;;;;;;5050275;28;20317;-65
2023/07/19 04:14:03;;;;;;;4.55;2.70;;;14.00;99.90;;;;;;5033891;28;20051;-65
2023/07/19 04:16:28;;;;;;;3.78;2.58;;;14.10;99.90;;;;;;5050628;28;20116;-65
2023/07/19 04:18:54;;;;;;;2.95;1.95;;;14.20;99.90;;;;;;5031147;28;20545;-65
2023/07/19 04:21:19;;;;;;;4.13;2.33;;;14.30;99.90;;;;;;5050205;28;20025;-65
2023/07/19 04:23:45;;;;;;;2.55;2.33;;;14.40;99.90;;;;;;5031155;28;20025;-65
2023/07/19 04:26:10;;;;;;;2.53;1.70;;;14.50;99.90;;;;;;5050379;28;20689;-65
2023/07/19 04:28:36;;;;;;;2.53;2.20;;;14.60;99.90;;;;;;5029843;28;20460;-65
2023/07/19 04:31:01;;;;;;;7.78;2.63;;;14.60;99.90;;;;;;5048774;28;20075;-65
2023/07/19 04:33:27;;;;;;;3.72;2.53;;;14.70;99.90;;;;;;5027803;28;20092;-65
2023/07/19 04:35:53;;;;;;;5.13;2.42;;;14.80;99.90;;;;;;5018322;28;20018;-67
2023/07/19 04:38:18;;;;;;;4.97;2.38;;;14.90;99.90;;;;;;5046456;28;20060;-66
2023/07/19 04:40:44;;;;;;;3.72;1.95;;;14.90;99.90;;;;;;5050397;28;20028;-66
2023/07/19 04:43:09;;;;;;;2.80;2.10;;;15.00;99.90;;;;;;5027681;28;20042;-65
2023/07/19 04:45:35;;;;;;;5.68;2.30;;;15.10;99.90;;;;;;5025093;28;20036;-67
2023/07/19 04:48:01;;;;;;;3.35;2.30;;;15.20;99.90;;;;;;5022055;28;20113;-67
2023/07/19 04:50:26;;;;;;;2.47;2.15;;;15.30;99.90;;;;;;5016934;28;20026;-66
2023/07/19 04:52:53;;;;;;;2.35;2.03;;;15.40;99.90;;;;;;5009887;28;20024;-66
2023/07/19 04:55:19;;;;;;;4.05;2.33;;;15.50;99.90;;;;;;5029114;28;20034;-67
2023/07/19 04:57:45;;;;;;;5.22;2.05;;;15.70;99.80;;;;;;5046356;28;20051;-66
2023/07/19 05:00:14;;;;;;;3.33;2.40;;;15.80;99.10;;;;;;5012432;28;20049;-66
2023/07/19 05:02:40;;;;;;;3.30;2.38;;;15.90;98.40;;;;;;5046805;28;20048;-67
2023/07/19 05:05:07;;;;;;;3.10;1.90;;;16.00;97.80;;;;;;5021357;28;20060;-67
2023/07/19 05:07:37;;;;;;;3.33;2.67;;;16.10;97.40;;;;;;5026664;28;20029;-67
2023/07/19 05:10:04;;;;;;;4.22;2.17;;;16.20;97.20;;;;;;5018696;28;20033;-67
2023/07/19 05:12:30;;;;;;;3.72;2.08;;;16.30;96.80;;;;;;5046063;28;20033;-66
2023/07/19 05:14:56;;;;;;;4.63;2.05;;;16.40;96.30;;;;;;5025717;28;20032;-67
2023/07/19 05:17:22;;;;;;;3.40;2.30;;;16.50;95.90;;;;;;5027147;28;20409;-66
2023/07/19 05:19:47;;;;;;;3.10;2.03;;;16.60;95.60;;;;;;5033305;28;20044;-67
2023/07/19 05:22:13;;;;;;;4.55;2.30;;;16.80;95.00;;;;;;5030357;28;20033;-67
2023/07/19 05:24:38;;;;;;;2.97;2.00;;;16.90;94.40;;;;;;5040465;28;20033;-66
2023/07/19 05:27:04;;;;;;;3.90;2.00;;;17.10;93.70;;;;;;5028436;28;20034;-66
2023/07/19 05:29:30;;;;;;;3.42;2.42;;;17.20;93.30;;;;;;5033981;28;20484;-65
2023/07/19 05:31:55;;;;;;;4.18;2.47;;;17.30;92.50;;;;;;5026077;28;20310;-66
2023/07/19 05:34:22;;;;;;;3.90;1.85;;;17.50;91.80;;;;;;5036583;28;20504;-67
2023/07/19 05:36:48;;;;;;;2.75;1.90;;;17.60;91.10;;;;;;5046754;28;20029;-66
2023/07/19 05:39:14;;;;;;;4.10;2.25;;;17.70;90.90;;;;;;5031706;28;20056;-67
2023/07/19 05:41:39;;;;;;;4.05;2.20;;;17.80;90.50;;;;;;5047601;28;20074;-66
2023/07/19 05:44:05;;;;;;;3.65;1.92;;;17.90;90.20;;;;;;5031337;28;20520;-67
2023/07/19 05:46:30;;;;;;;2.05;1.85;;;18.00;90.00;;;;;;5047634;28;20096;-66
2023/07/19 05:48:56;;;;;;;3.00;2.10;;;18.00;89.60;;;;;;5029817;28;20094;-67
2023/07/19 05:51:21;;;;;;;3.13;1.70;;;18.10;88.90;;;;;;5047961;28;20036;-66
2023/07/19 05:53:47;;;;;;;3.05;1.90;;;18.20;89.10;;;;;;5026112;28;20068;-66
2023/07/19 05:56:12;;;;;;;3.17;2.30;;;18.40;87.60;;;;;;5011083;28;20442;-65
2023/07/19 05:58:38;;;;;;;2.33;1.75;;;18.50;87.20;;;;;;5041459;28;20045;-67
2023/07/19 06:01:07;;;;;;;3.97;1.98;;;18.70;85.20;;;;;;5031263;28;20029;-67
2023/07/19 06:03:33;;;;;;;2.45;1.67;;;18.80;85.20;;;;;;5030823;28;20401;-67
2023/07/19 06:06:02;;;;;;;2.28;1.70;;;19.00;83.90;;;;;;5038954;28;20619;-63
2023/07/19 06:08:28;;;;;;;4.55;2.38;;;19.20;82.80;;;;;;5026103;28;20030;-62
2023/07/19 06:10:53;;;;;;;2.97;1.98;;;19.50;81.70;;;;;;5046943;28;20142;-62
2023/07/19 06:13:19;;;;;;;3.30;1.60;;;20.00;79.40;;;;;;5026202;28;20061;-62
2023/07/19 06:15:44;;;;;;;2.97;1.48;;;20.70;76.70;;;;;;5047037;28;20518;-64
2023/07/19 06:18:10;;;;;;;5.55;1.80;;;21.50;74.40;;;;;;5037850;28;20112;-64
2023/07/19 06:20:36;;;;;;;2.10;1.65;;;21.90;71.20;;;;;;5047258;28;20025;-64
2023/07/19 06:23:02;;;;;;;3.67;1.50;;;22.60;70.10;;;;;;5026120;28;20081;-64
2023/07/19 06:25:27;;;;;;;2.05;1.50;;;23.70;67.60;;;;;;5030469;28;20028;-66
2023/07/19 06:27:53;;;;;;;2.75;1.80;;;24.90;63.20;;;;;;5024380;28;20600;-66
2023/07/19 06:30:18;;;;;;;7.35;1.88;;;26.10;58.20;;;;;;5031803;28;20045;-66
2023/07/19 06:32:44;;;;;;;1.77;1.50;;;27.00;55.20;;;;;;5047515;28;20468;-66
2023/07/19 06:35:09;;;;;;;3.22;1.70;;;27.40;52.20;;;;;;5026567;28;20095;-64
2023/07/19 06:37:35;;;;;;;2.15;1.52;;;27.30;50.20;;;;;;5042749;28;20035;-67
2023/07/19 06:40:03;;;;;;;3.33;1.80;;;27.00;49.10;;;;;;5047252;28;20037;-66
2023/07/19 06:42:29;;;;;;;2.05;1.52;;;26.70;48.10;;;;;;5032504;28;20021;-67
2023/07/19 06:44:56;;;;;;;2.60;1.48;;;26.50;47.90;;;;;;5047301;28;20029;-66
2023/07/19 06:47:21;;;;;;;2.00;1.55;;;26.30;47.90;;;;;;5024854;28;20068;-66
2023/07/19 06:49:47;;;;;;;3.88;1.60;;;26.00;47.70;;;;;;5031712;28;20025;-66
2023/07/19 06:52:12;;;;;;;2.33;1.63;;;25.90;46.70;;;;;;5037874;28;20037;-64
2023/07/19 06:54:39;;;;;;;4.63;1.75;;;26.50;45.60;;;;;;5027167;28;20028;-64
2023/07/19 06:57:05;;;;;;;3.28;1.35;;;27.50;42.20;;;;;;5035478;28;20032;-65
2023/07/19 06:59:31;;;;;;;1.42;1.15;;;27.80;40.20;;;;;;5047266;28;20029;-65
2023/07/19 07:01:56;;;;;;;2.17;1.50;;;27.80;38.60;;;;;;5025732;28;20034;-66
2023/07/19 07:04:23;;;;;;;3.92;1.70;;;27.90;37.50;;;;;;5027339;28;20366;-65
2023/07/19 07:06:49;;;;;;;1.38;1.23;;;28.00;36.20;;;;;;5034269;28;20025;-65
2023/07/19 07:09:15;;;;;;;1.63;1.27;;;28.70;34.60;;;;;;5027225;28;20285;-65
2023/07/19 07:11:40;;;;;;;1.73;1.48;;;30.30;30.60;;;;;;5040912;28;20029;-65
2023/07/19 07:14:05;;;;;;;3.13;1.50;;;32.20;27.30;;;;;;5027367;28;20124;-65
2023/07/19 07:16:31;;;;;;;4.00;1.60;;;32.20;25.10;;;;;;5043404;28;20112;-65
2023/07/19 07:18:57;;;;;;;3.92;1.50;;;32.10;23.40;;;;;;5030541;28;20048;-65
2023/07/19 07:21:22;;;;;;;4.13;1.42;;;32.10;22.00;;;;;;5049763;28;20110;-65
2023/07/19 07:23:48;;;;;;;1.77;1.65;;;33.20;20.40;;;;;;5028851;28;20149;-65
2023/07/19 07:26:14;;;;;;;3.30;1.50;;;34.60;18.80;;;;;;5049629;28;20025;-65
2023/07/19 07:28:40;;;;;;;2.20;1.45;;;36.00;16.70;;;;;;5029072;28;20044;-68
2023/07/19 07:31:08;;;;;;;3.28;1.50;;;37.10;13.60;;;;;;5049617;28;20053;-67
2023/07/19 07:33:34;;;;;;;2.10;1.42;;;37.90;11.70;;;;;;5028801;28;20014;-66
2023/07/19 07:35:59;;;;;;;5.32;1.67;;;38.60;10.40;;;;;;5049702;28;20031;-67
2023/07/19 07:38:25;;;;;;;3.47;1.60;;;38.70;9.30;;;;;;5028911;28;20037;-68
2023/07/19 07:40:50;;;;;;;2.30;1.50;;;37.90;7.40;;;;;;5049519;28;20068;-68
2023/07/19 07:43:16;;;;;;;2.47;1.67;;;37.30;8.50;;;;;;5044294;28;20032;-67
2023/07/19 07:45:41;;;;;;;1.65;1.55;;;37.50;7.70;;;;;;5050064;28;20400;-67
2023/07/19 07:48:07;;;;;;;4.05;1.58;;;37.00;7.30;;;;;;5029037;28;20523;-67
2023/07/19 07:50:32;;;;;;;2.17;1.67;;;36.10;7.20;;;;;;5049374;28;20374;-65
2023/07/19 07:52:58;;;;;;;1.90;1.67;;;35.20;7.50;;;;;;5028682;28;20124;-66
2023/07/19 07:55:24;;;;;;;1.88;1.65;;;34.40;7.70;;;;;;5031674;28;20091;-65
2023/07/19 07:57:49;;;;;;;3.63;1.48;;;34.00;7.50;;;;;;5049276;28;20044;-66
2023/07/19 08:00:18;;;;;;;1.52;1.25;;;34.30;7.10;;;;;;5028374;28;20042;-65
2023/07/19 08:02:44;;;;;;;3.83;1.42;;;35.10;6.10;;;;;;5049594;28;20033;-66
2023/07/19 08:05:09;;;;;;;3.78;1.50;;;36.30;5.30;;;;;;5030830;28;20516;-66
2023/07/19 08:07:35;;;;;;;3.15;1.92;;;37.00;4.70;;;;;;5049669;28;20029;-66
2023/07/19 08:10:01;;;;;;;3.85;1.48;;;37.00;4.00;;;;;;5041102;28;20087;-67
2023/07/19 08:12:27;;;;;;;2.00;1.35;;;36.40;4.30;;;;;;5049551;28;20029;-67
2023/07/19 08:14:53;;;;;;;3.47;1.70;;;35.70;4.30;;;;;;5028535;28;20028;-66
2023/07/19 08:17:18;;;;;;;1.90;1.58;;;35.10;4.70;;;;;;5048672;28;20033;-66
2023/07/19 08:19:44;;;;;;;2.38;1.58;;;35.10;4.50;;;;;;5028006;28;20115;-67
2023/07/19 08:22:24;;;;;;;2.00;1.70;;;35.60;4.10;;;;;;5033868;28;20476;-65
2023/07/19 08:24:49;;;;;;;2.13;1.63;;;36.00;2.60;;;;;;5009193;28;20036;-67
2023/07/19 08:27:15;;;;;;;1.55;1.45;;;36.10;3.80;;;;;;5033953;28;20037;-67
2023/07/19 08:29:40;;;;;;;1.77;1.67;;;35.70;3.40;;;;;;5043562;28;20030;-66
2023/07/19 08:32:06;;;;;;;1.95;1.40;;;34.90;3.80;;;;;;5026994;28;20394;-66
2023/07/19 08:34:31;;;;;;;14.05;2.70;;;34.80;4.10;;;;;;5048082;28;20037;-66
2023/07/19 08:36:57;;;;;;;5.22;2.05;;;34.40;4.20;;;;;;5027688;28;20041;-66
2023/07/19 08:39:23;;;;;;;7.55;1.90;;;33.90;4.80;;;;;;5048472;28;20112;-66
2023/07/19 08:41:49;;;;;;;3.40;1.88;;;33.20;5.10;;;;;;5027742;28;20025;-66
2023/07/19 08:44:15;;;;;;;12.77;3.00;;;32.50;5.40;;;;;;5028977;28;20017;-65
2023/07/19 08:46:43;;;;;;;12.20;2.60;;;32.00;5.50;;;;;;5040473;28;20036;-65
2023/07/19 08:49:09;;;;;;;5.15;2.15;;;31.40;6.00;;;;;;5028991;28;20496;-66
2023/07/19 08:51:38;;;;;;;7.88;2.60;;;31.00;6.50;;;;;;5040846;28;20033;-65
2023/07/19 08:54:03;;;;;;;6.95;2.13;;;30.40;6.80;;;;;;5027008;28;20068;-70
2023/07/19 08:56:31;;;;;;;1.90;1.60;;;30.00;7.30;;;;;;5029019;28;20021;-66
2023/07/19 08:58:56;;;;;;;5.72;1.90;;;29.80;7.60;;;;;;5046246;28;20017;-64
2023/07/19 09:01:22;;;;;;;2.65;1.65;;;29.70;7.90;;;;;;5048911;28;20104;-65
2023/07/19 09:03:47;;;;;;;7.57;1.80;;;29.70;7.90;;;;;;5027519;28;20460;-66
2023/07/19 09:06:24;;;;;;;7.70;1.77;;;29.80;8.00;;;;;;5031872;28;20036;-66
2023/07/19 09:08:51;;;;;;;3.05;1.60;;;30.10;8.20;;;;;;5013289;28;20025;-66
2023/07/19 09:11:21;;;;;;;3.80;1.58;;;30.40;8.00;;;;;;5048564;28;20021;-65
2023/07/19 09:13:53;;;;;;;2.55;1.55;;;30.60;8.00;;;;;;5044193;28;20037;-62
2023/07/19 09:16:35;;;;;;;3.40;1.60;;;30.90;7.80;;;;;;5038448;28;20112;-59
2023/07/19 09:19:01;;;;;;;3.30;1.63;;;31.20;7.40;;;;;;5008902;28;20109;-49
2023/07/19 09:21:42;;;;;;;2.92;1.95;;;31.70;7.40;;;;;;5030480;28;20438;-56
2023/07/19 09:24:10;;;;;;;2.75;1.40;;;31.90;6.90;;;;;;5009061;28;20127;-54
2023/07/19 09:26:50;;;;;;;2.58;1.65;;;31.90;6.80;;;;;;5030315;28;20505;-56
2023/07/19 09:29:16;;;;;;;2.97;1.77;;;32.00;6.50;;;;;;5047398;28;20183;-53
2023/07/19 09:32:02;;;;;;;4.28;1.65;;;32.00;6.80;;;;;;5027397;28;20040;-55
2023/07/19 09:34:28;;;;;;;;;;;32.00;6.10;;;;;;5028567;28;20401;-54
2023/07/19 09:36:54;;;;;;;2.17;1.50;;;31.90;5.60;;;;;;5027421;28;19913;-55
2023/07/19 09:39:22;;;;;;;2.72;1.67;;;31.80;6.50;;;;;;5047297;28;20481;-56
2023/07/19 09:41:47;;;;;;;3.15;1.70;;;31.90;6.50;;;;;;5025815;28;20108;-55
2023/07/19 09:44:17;;;;;;;2.15;1.63;;;31.80;6.30;;;;;;5047416;28;20564;-55
2023/07/19 09:46:46;;;;;;;2.15;1.70;;;32.00;6.40;;;;;;5026441;28;20025;-56
2023/07/19 09:49:13;;;;;;;3.58;2.05;;;32.00;5.80;;;;;;5047698;28;20040;-55
2023/07/19 09:51:41;;;;;;;3.80;1.95;;;31.90;5.90;;;;;;5026514;28;20052;-55
2023/07/19 09:54:09;;;;;;;3.53;1.58;;;32.10;6.00;;;;;;5047464;28;20041;-53
2023/07/19 09:56:35;;;;;;;2.40;1.58;;;32.10;6.10;;;;;;5026222;28;20130;-52
2023/07/19 09:59:03;;;;;;;2.15;1.40;;;32.10;5.30;;;;;;5047434;28;20583;-53
2023/07/19 10:01:29;;;;;;;3.78;1.30;;;32.20;5.00;;;;;;5026502;28;20030;-55
2023/07/19 10:03:57;;;;;;;2.67;1.70;;;32.30;5.00;;;;;;5046976;28;20031;-54
2023/07/19 10:06:29;;;;;;;2.55;1.45;;;32.10;4.40;;;;;;5022410;28;20033;-53
2023/07/19 10:09:23;;;;;;;2.75;1.50;;;32.10;4.30;;;;;;5008125;28;20057;-54
2023/07/19 10:11:52;;;;;;;4.38;1.60;;;32.10;3.50;;;;;;5023551;28;20041;-55
2023/07/19 10:14:25;;;;;;;2.40;1.70;;;31.90;3.50;;;;;;5046934;28;20029;-57
2023/07/19 10:16:57;;;;;;;4.15;2.05;;;31.70;4.00;;;;;;5024074;28;20033;-58
2023/07/19 10:19:23;;;;;;;1.67;1.58;;;31.60;4.10;;;;;;5047731;28;20037;-58
2023/07/19 10:22:07;;;;;;;2.38;1.52;;;31.50;4.20;;;;;;5026459;28;20091;-58
2023/07/19 10:24:35;;;;;;;2.25;1.70;;;31.60;4.20;;;;;;5047467;28;20035;-58
2023/07/19 10:27:02;;;;;;;4.13;1.70;;;31.40;4.00;;;;;;5026343;28;20032;-57
2023/07/19 10:29:44;;;;;;;2.13;1.60;;;31.40;4.10;;;;;;5044882;28;20116;-58
2023/07/19 10:32:10;;;;;;;2.03;1.60;;;31.20;3.90;;;;;;5006825;28;20034;-58
2023/07/19 10:34:36;;;;;;;3.83;1.92;;;31.00;4.20;;;;;;5046197;28;20029;-57
2023/07/19 10:37:03;;;;;;;2.90;2.00;;;31.00;4.30;;;;;;5026206;28;20037;-57
2023/07/19 10:39:30;;;;;;;2.17;1.67;;;30.80;4.30;;;;;;5046922;28;20032;-56
2023/07/19 10:41:56;;;;;;;4.05;1.80;;;30.60;4.50;;;;;;5026109;28;20041;-57
2023/07/19 10:44:22;;;;;;;3.33;2.15;;;30.50;4.60;;;;;;5046859;28;20091;-56
2023/07/19 10:46:48;;;;;;;2.00;1.80;;;30.40;4.70;;;;;;5026262;28;20043;-55
2023/07/19 10:49:14;;;;;;;2.30;1.70;;;30.30;4.80;;;;;;5038419;28;20108;-54
2023/07/19 10:51:50;;;;;;;2.15;1.88;;;30.20;4.80;;;;;;5044887;28;20032;-57
2023/07/19 10:54:16;;;;;;;3.05;1.98;;;30.20;4.90;;;;;;5013113;28;20065;-57
2023/07/19 10:56:41;;;;;;;1.95;1.77;;;30.20;5.00;;;;;;5029441;28;20061;-56
2023/07/19 10:59:07;;;;;;;2.90;1.73;;;30.20;5.00;;;;;;5029380;28;20408;-56
2023/07/19 11:01:32;;;;;;;2.38;1.70;;;30.20;4.90;;;;;;5029436;28;20033;-54
2023/07/19 11:04:04;;;;;;;2.75;1.70;;;30.30;5.20;;;;;;5048002;28;20044;-55
2023/07/19 11:06:31;;;;;;;2.20;1.70;;;30.30;5.20;;;;;;5024217;28;20120;-56
2023/07/19 11:09:08;;;;;;;3.05;1.70;;;30.50;5.20;;;;;;5044330;28;20036;-56
2023/07/19 11:11:38;;;;;;;4.30;1.83;;;30.50;5.20;;;;;;5030044;28;20060;-56
2023/07/19 11:14:05;;;;;;;3.20;1.92;;;30.60;5.10;;;;;;5035269;28;20029;-58
2023/07/19 11:16:31;;;;;;;2.15;1.80;;;30.60;5.00;;;;;;5031005;28;20038;-60
2023/07/19 11:18:57;;;;;;;3.35;2.05;;;30.60;5.00;;;;;;5030989;28;20482;-57
2023/07/19 11:21:25;;;;;;;4.13;1.40;;;30.40;4.80;;;;;;5048940;28;20078;-58
2023/07/19 11:23:51;;;;;;;2.78;1.70;;;30.30;5.00;;;;;;5029021;28;20381;-58
2023/07/19 11:26:18;;;;;;;2.10;1.80;;;30.20;5.20;;;;;;5050036;28;20025;-55
2023/07/19 11:28:52;;;;;;;2.78;2.10;;;30.20;5.40;;;;;;5043413;28;20105;-57
2023/07/19 11:31:38;;;;;;;5.78;1.88;;;30.10;5.60;;;;;;5029244;28;20049;-56
2023/07/19 11:34:11;;;;;;;2.78;1.80;;;30.10;6.00;;;;;;5025869;28;20104;-58
2023/07/19 11:36:41;;;;;;;3.72;1.85;;;30.10;5.80;;;;;;5010791;28;20398;-58
2023/07/19 11:39:22;;;;;;;1.90;1.63;;;30.20;5.80;;;;;;5030396;28;20501;-57
2023/07/19 11:41:48;;;;;;;1.67;1.58;;;30.10;5.40;;;;;;5050151;28;20120;-58
2023/07/19 11:44:19;;;;;;;2.15;1.65;;;30.10;5.70;;;;;;5029186;28;20101;-59
2023/07/19 11:46:44;;;;;;;2.97;1.60;;;30.20;5.80;;;;;;5042625;28;20040;-57
2023/07/19 11:49:10;;;;;;;1.88;1.45;;;30.30;5.60;;;;;;5024110;28;20029;-57
2023/07/19 11:51:37;;;;;;;3.25;1.70;;;30.40;5.90;;;;;;5027763;28;20037;-56
2023/07/19 11:54:03;;;;;;;1.92;1.40;;;30.60;5.80;;;;;;5025646;28;20041;-58
2023/07/19 11:56:29;;;;;;;4.78;2.08;;;30.60;5.70;;;;;;5028044;28;20659;-57
2023/07/19 11:58:55;;;;;;;4.03;2.03;;;30.60;5.60;;;;;;5026904;28;20084;-57
2023/07/19 12:01:21;;;;;;;4.07;2.17;;;30.50;5.50;;;;;;5027516;28;20033;-59
2023/07/19 12:03:47;;;;;;;2.10;1.90;;;30.50;5.20;;;;;;5043645;28;20024;-57
2023/07/19 12:06:14;;;;;;;3.28;1.88;;;30.50;5.50;;;;;;5034419;28;20503;-57
2023/07/19 12:08:40;;;;;;;1.90;1.45;;;30.50;5.40;;;;;;5026678;28;20035;-57
2023/07/19 12:11:06;;;;;;;2.38;1.80;;;30.50;5.40;;;;;;5028747;28;20501;-58
2023/07/19 12:13:33;;;;;;;3.33;2.03;;;30.30;5.40;;;;;;5047427;28;20040;-58
2023/07/19 12:15:59;;;;;;;3.17;1.98;;;30.30;5.50;;;;;;5046757;28;20033;-58
2023/07/19 12:18:25;;;;;;;1.98;1.65;;;30.40;5.60;;;;;;5044159;28;20558;-58
2023/07/19 12:20:51;;;;;;;1.98;1.48;;;30.30;5.80;;;;;;5026310;28;20063;-58
2023/07/19 12:23:16;;;;;;;3.47;1.58;;;30.30;6.00;;;;;;5047636;28;20033;-57
2023/07/19 12:25:42;;;;;;;4.68;1.73;;;30.30;6.00;;;;;;5026732;28;20071;-57
2023/07/19 12:28:07;;;;;;;2.78;1.80;;;30.30;6.30;;;;;;5046315;28;20528;-58
2023/07/19 12:30:33;;;;;;;3.75;2.67;;;29.90;6.60;;;;;;5039971;28;20079;-57
2023/07/19 12:32:58;;;;;;;3.50;1.70;;;29.80;7.00;;;;;;5027008;28;20121;-58
2023/07/19 12:35:25;;;;;;;2.42;1.75;;;29.70;7.30;;;;;;5030568;28;20452;-58
2023/07/19 12:37:51;;;;;;;3.50;1.90;;;29.60;7.40;;;;;;5034730;28;20323;-58
2023/07/19 12:40:16;;;;;;;4.28;1.75;;;29.30;7.80;;;;;;5031509;28;20564;-57
2023/07/19 12:42:42;;;;;;;2.25;1.60;;;29.10;7.90;;;;;;5039040;28;20044;-58
2023/07/19 12:45:09;;;;;;;2.25;1.52;;;29.10;8.10;;;;;;5032665;28;20299;-56
2023/07/19 12:47:36;;;;;;;2.35;1.50;;;29.10;8.10;;;;;;5036986;28;20440;-58